Albatros — C6CN4 — position and weather

sailwx.info

Track history (hours):
 
Tides and Currents Weather Stations Pressure Air Temp Water Temp Dewpoint Dewpoint Depression Visibility Wind Speed Wind Dir Waves Ship Positions

Albatros

Last reported at 2018-Feb-16 22:46 UTC. Time now 2018-Feb-18 10:48 UTC.
Position S 32°44' W 071°47'.

Length 205.5 m; beam 25.2 m; draft 7.6 m.

Type: Passenger vessel. MMSI: 308784000.

Date/timePositionNaut miles runAvg speedWind from/ knotsBaromVisibWave heightAir tempDewpointWater temp
2018-Feb-16 22:46S 32°44' W 071°47'417.1
2018-Feb-16 22:30S 32°48' W 071°44'917.1
2018-Feb-16 22:00S 32°55' W 071°39'713.1
2018-Feb-16 21:27S 33°02' W 071°37'0 1.0
2018-Feb-16 20:57S 33°02' W 071°38'0 0.0
2018-Feb-16 10:09S 33°02' W 071°38'1 2.7
2018-Feb-16 09:49S 33°02' W 071°37'2 5.5
2018-Feb-16 09:30S 32°60' W 071°37'4 8.8
2018-Feb-16 09:00S 32°59' W 071°43'  
2018-Feb-11 02:21S 54°53' W 068°22'6 5.5
2018-Feb-11 01:19S 54°49' W 068°15'2 6.7
2018-Feb-11 01:00S 54°49' W 068°18'0 0.1
2018-Feb-11 00:30S 54°49' W 068°18'0 0.0
2018-Feb-11 00:00S 54°49' W 068°18'0 0.0
2018-Feb-10 23:30S 54°49' W 068°18'0 0.0
2018-Feb-10 23:00S 54°49' W 068°18'0 0.0
2018-Feb-10 22:30S 54°49' W 068°18'0 0.0
2018-Feb-10 22:00S 54°49' W 068°18'0 0.0
2018-Feb-10 21:30S 54°49' W 068°18'0 0.0
2018-Feb-10 21:00S 54°49' W 068°18'0 0.0
2018-Feb-10 20:26S 54°49' W 068°18'0 0.0
2018-Feb-10 19:53S 54°49' W 068°18'0 0.0
2018-Feb-10 19:29S 54°49' W 068°18'0 0.0
2018-Feb-10 18:56S 54°49' W 068°18'0 0.0
2018-Feb-10 18:29S 54°49' W 068°18'0 0.0
2018-Feb-10 17:56S 54°49' W 068°18'0 0.0
2018-Feb-10 17:26S 54°49' W 068°18'0 0.0
2018-Feb-10 16:41S 54°49' W 068°18'0 0.0
2018-Feb-10 16:29S 54°49' W 068°18'0 0.0
2018-Feb-10 15:50S 54°49' W 068°18'0 0.0
2018-Feb-10 15:29S 54°49' W 068°18'0 0.0
2018-Feb-10 14:59S 54°49' W 068°18'0 0.0
2018-Feb-10 14:26S 54°49' W 068°18'0 0.0
2018-Feb-10 13:56S 54°49' W 068°18'0 0.0
2018-Feb-10 13:26S 54°49' W 068°18'0 0.0
2018-Feb-10 12:59S 54°49' W 068°18'0 0.0
2018-Feb-10 12:29S 54°49' W 068°18'0 0.0
2018-Feb-10 11:59S 54°49' W 068°18'0 0.0
2018-Feb-10 11:29S 54°49' W 068°18'0 0.0
2018-Feb-10 10:59S 54°49' W 068°18'0 0.1
2018-Feb-10 10:30S 54°49' W 068°18'  
Track history (hours):
 
Tides and Currents Weather Stations Pressure Air Temp Water Temp Dewpoint Dewpoint Depression Visibility Wind Speed Wind Dir Waves Ship Positions

Albatros

Last reported at 2018-Feb-16 22:46 UTC. Time now 2018-Feb-18 10:48 UTC.
Position S 32°44' W 071°47'.

Length 205.5 m; beam 25.2 m; draft 7.6 m.

Type: Passenger vessel. MMSI: 308784000.

Date/timePositionNaut miles runAvg speedWind from/ knotsBaromVisibWave heightAir tempDewpointWater temp
2018-Feb-16 22:46S 32°44' W 071°47'417.1
2018-Feb-16 22:30S 32°48' W 071°44'917.1
2018-Feb-16 22:00S 32°55' W 071°39'713.1
2018-Feb-16 21:27S 33°02' W 071°37'0 1.0
2018-Feb-16 20:57S 33°02' W 071°38'0 0.0
2018-Feb-16 10:09S 33°02' W 071°38'1 2.7
2018-Feb-16 09:49S 33°02' W 071°37'2 5.5
2018-Feb-16 09:30S 32°60' W 071°37'4 8.8
2018-Feb-16 09:00S 32°59' W 071°43'  
2018-Feb-11 02:21S 54°53' W 068°22'6 5.5
2018-Feb-11 01:19S 54°49' W 068°15'2 6.7
2018-Feb-11 01:00S 54°49' W 068°18'0 0.1
2018-Feb-11 00:30S 54°49' W 068°18'0 0.0
2018-Feb-11 00:00S 54°49' W 068°18'0 0.0
2018-Feb-10 23:30S 54°49' W 068°18'0 0.0
2018-Feb-10 23:00S 54°49' W 068°18'0 0.0
2018-Feb-10 22:30S 54°49' W 068°18'0 0.0
2018-Feb-10 22:00S 54°49' W 068°18'0 0.0
2018-Feb-10 21:30S 54°49' W 068°18'0 0.0
2018-Feb-10 21:00S 54°49' W 068°18'0 0.0
2018-Feb-10 20:26S 54°49' W 068°18'0 0.0
2018-Feb-10 19:53S 54°49' W 068°18'0 0.0
2018-Feb-10 19:29S 54°49' W 068°18'0 0.0
2018-Feb-10 18:56S 54°49' W 068°18'0 0.0
2018-Feb-10 18:29S 54°49' W 068°18'0 0.0
2018-Feb-10 17:56S 54°49' W 068°18'0 0.0
2018-Feb-10 17:26S 54°49' W 068°18'0 0.0
2018-Feb-10 16:41S 54°49' W 068°18'0 0.0
2018-Feb-10 16:29S 54°49' W 068°18'0 0.0
2018-Feb-10 15:50S 54°49' W 068°18'0 0.0
2018-Feb-10 15:29S 54°49' W 068°18'0 0.0
2018-Feb-10 14:59S 54°49' W 068°18'0 0.0
2018-Feb-10 14:26S 54°49' W 068°18'0 0.0
2018-Feb-10 13:56S 54°49' W 068°18'0 0.0
2018-Feb-10 13:26S 54°49' W 068°18'0 0.0
2018-Feb-10 12:59S 54°49' W 068°18'0 0.0
2018-Feb-10 12:29S 54°49' W 068°18'0 0.0
2018-Feb-10 11:59S 54°49' W 068°18'0 0.0
2018-Feb-10 11:29S 54°49' W 068°18'0 0.0
2018-Feb-10 10:59S 54°49' W 068°18'0 0.1
2018-Feb-10 10:30S 54°49' W 068°18'  

Dump ship's entire track history